createdAt,value
2023-05-17T00:01:18.122Z,100406.19
2023-05-17T00:03:46.029Z,100408.00
2023-05-17T00:06:14.261Z,100413.06
2023-05-17T00:08:42.257Z,100416.13
2023-05-17T00:11:10.573Z,100420.50
2023-05-17T00:13:41.063Z,100414.38
2023-05-17T00:16:09.950Z,100410.56
2023-05-17T00:18:37.926Z,100408.28
2023-05-17T00:21:06.659Z,100406.84
2023-05-17T00:23:34.673Z,100399.59
2023-05-17T00:26:02.582Z,100406.72
2023-05-17T00:28:30.627Z,100411.53
2023-05-17T00:31:00.468Z,100404.59
2023-05-17T00:33:28.184Z,100398.31
2023-05-17T00:35:56.218Z,100406.75
2023-05-17T00:38:23.978Z,100413.34
2023-05-17T00:40:54.311Z,100406.72
2023-05-17T00:43:22.108Z,100417.16
2023-05-17T00:45:50.701Z,100421.66
2023-05-17T00:48:21.110Z,100419.69
2023-05-17T00:50:49.693Z,100418.03
2023-05-17T00:53:18.560Z,100425.34
2023-05-17T00:55:47.362Z,100424.53
2023-05-17T00:58:15.969Z,100429.00
2023-05-17T01:00:44.285Z,100425.72
2023-05-17T01:03:13.346Z,100430.66
2023-05-17T01:05:43.193Z,100436.78
2023-05-17T01:08:11.200Z,100437.94
2023-05-17T01:10:46.557Z,100432.66
2023-05-17T01:13:20.928Z,100435.16
2023-05-17T01:15:59.019Z,100443.91
2023-05-17T01:18:35.748Z,100443.19
2023-05-17T01:21:16.750Z,100425.19
2023-05-17T01:23:54.615Z,100440.22
2023-05-17T01:26:38.266Z,100440.03
2023-05-17T01:29:06.839Z,100440.72
2023-05-17T01:31:35.993Z,100434.09
2023-05-17T01:34:08.235Z,100444.16
2023-05-17T01:36:37.153Z,100445.16
2023-05-17T01:39:05.130Z,100445.66
2023-05-17T01:41:40.610Z,100454.56
2023-05-17T01:44:19.617Z,100458.69
2023-05-17T01:46:52.264Z,100460.69
2023-05-17T01:49:25.917Z,100467.09
2023-05-17T01:51:59.096Z,100460.66
2023-05-17T01:54:33.551Z,100464.25
2023-05-17T01:57:06.979Z,100452.56
2023-05-17T01:59:39.283Z,100460.50
2023-05-17T02:02:08.857Z,100459.81
2023-05-17T02:04:37.858Z,100461.91
2023-05-17T02:07:05.988Z,100465.34
2023-05-17T02:09:34.261Z,100461.38
2023-05-17T02:12:03.858Z,100474.59
2023-05-17T02:14:31.958Z,100474.09
2023-05-17T02:16:59.661Z,100472.31
2023-05-17T02:19:27.966Z,100467.84
2023-05-17T02:21:55.668Z,100465.03
2023-05-17T02:24:23.642Z,100468.00
2023-05-17T02:26:51.379Z,100466.38
2023-05-17T02:29:20.690Z,100462.06
2023-05-17T02:31:48.451Z,100466.66
2023-05-17T02:34:17.960Z,100471.22
2023-05-17T02:36:45.977Z,100470.56
2023-05-17T02:39:14.170Z,100478.34
2023-05-17T02:41:41.863Z,100471.59
2023-05-17T02:44:09.524Z,100481.03
2023-05-17T02:46:39.667Z,100476.75
2023-05-17T02:49:07.339Z,100481.34
2023-05-17T02:51:35.347Z,100480.38
2023-05-17T02:54:03.051Z,100487.63
2023-05-17T02:56:31.227Z,100486.66
2023-05-17T02:59:01.200Z,100492.41
2023-05-17T03:01:29.573Z,100488.16
2023-05-17T03:03:58.877Z,100497.19
2023-05-17T03:06:27.450Z,100496.34
2023-05-17T03:08:55.312Z,100499.53
2023-05-17T03:11:23.220Z,100488.50
2023-05-17T03:13:52.147Z,100495.75
2023-05-17T03:16:23.772Z,100505.84
2023-05-17T03:18:53.125Z,100500.56
2023-05-17T03:21:22.863Z,100507.31
2023-05-17T03:23:51.532Z,100503.88
2023-05-17T03:26:20.630Z,100509.50
2023-05-17T03:28:52.286Z,100507.78
2023-05-17T03:31:20.900Z,100510.53
2023-05-17T03:33:48.769Z,100506.44
2023-05-17T03:36:16.808Z,100509.22
2023-05-17T03:38:46.127Z,100508.25
2023-05-17T03:41:14.518Z,100509.41
2023-05-17T03:43:42.834Z,100517.97
2023-05-17T03:46:14.663Z,100517.28
2023-05-17T03:48:42.488Z,100523.72
2023-05-17T03:51:12.499Z,100517.28
2023-05-17T03:53:43.240Z,100530.03
2023-05-17T03:56:13.187Z,100525.53
2023-05-17T03:58:42.571Z,100527.84
2023-05-17T04:01:11.952Z,100533.44
2023-05-17T04:03:40.223Z,100531.31
2023-05-17T04:06:08.312Z,100522.63
2023-05-17T04:08:38.144Z,100526.75
2023-05-17T04:11:10.488Z,100524.25
2023-05-17T04:13:40.802Z,100526.16
2023-05-17T04:16:09.421Z,100532.69
2023-05-17T04:18:40.254Z,100538.31
2023-05-17T04:21:08.063Z,100527.91
2023-05-17T04:23:37.686Z,100540.44
2023-05-17T04:26:06.562Z,100537.03
2023-05-17T04:28:40.211Z,100546.09
2023-05-17T04:31:09.148Z,100551.66
2023-05-17T04:33:38.140Z,100548.22
2023-05-17T04:36:08.260Z,100559.97
2023-05-17T04:38:37.916Z,100558.28
2023-05-17T04:41:09.297Z,100557.69
2023-05-17T04:43:40.299Z,100565.94
2023-05-17T04:46:13.604Z,100569.63
2023-05-17T04:48:41.814Z,100570.66
2023-05-17T04:51:10.957Z,100565.03
2023-05-17T04:53:38.882Z,100574.81
2023-05-17T04:56:11.358Z,100575.47
2023-05-17T04:58:41.301Z,100573.66
2023-05-17T05:01:09.237Z,100572.88
2023-05-17T05:03:37.922Z,100581.13
2023-05-17T05:06:08.344Z,100578.84
2023-05-17T05:08:37.607Z,100586.88
2023-05-17T05:11:07.743Z,100590.34
2023-05-17T05:13:38.423Z,100598.16
2023-05-17T05:16:09.259Z,100607.72
2023-05-17T05:18:38.221Z,100603.13
2023-05-17T05:21:06.610Z,100606.44
2023-05-17T05:23:34.786Z,100610.91
2023-05-17T05:26:02.516Z,100617.53
2023-05-17T05:28:30.319Z,100611.56
2023-05-17T05:31:00.271Z,100624.47
2023-05-17T05:33:34.199Z,100622.97
2023-05-17T05:36:03.079Z,100626.91
2023-05-17T05:38:31.519Z,100619.16
2023-05-17T05:41:00.155Z,100624.25
2023-05-17T05:43:28.072Z,100623.88
2023-05-17T05:45:56.268Z,100626.16
2023-05-17T05:48:24.045Z,100629.06
2023-05-17T05:50:53.221Z,100632.38
2023-05-17T05:53:20.926Z,100630.09
2023-05-17T05:55:52.759Z,100632.72
2023-05-17T05:58:21.386Z,100641.06
2023-05-17T06:00:49.646Z,100643.31
2023-05-17T06:03:17.363Z,100644.38
2023-05-17T06:05:45.347Z,100655.09
2023-05-17T06:08:14.426Z,100656.75
2023-05-17T06:10:42.337Z,100661.13
2023-05-17T06:13:10.025Z,100656.91
2023-05-17T06:15:38.256Z,100661.91
2023-05-17T06:18:06.315Z,100659.72
2023-05-17T06:20:34.135Z,100663.66
2023-05-17T06:23:01.920Z,100676.31
2023-05-17T06:25:31.041Z,100664.94
2023-05-17T06:27:58.887Z,100596.69
2023-05-17T06:30:27.969Z,100675.63
2023-05-17T06:32:56.271Z,100680.69
2023-05-17T06:35:24.150Z,100681.19
2023-05-17T06:37:51.848Z,100682.47
2023-05-17T06:40:19.573Z,100681.91
2023-05-17T06:42:48.877Z,100683.41
2023-05-17T06:45:16.568Z,100684.03
2023-05-17T06:47:44.566Z,100689.47
2023-05-17T06:50:12.394Z,100687.06
2023-05-17T06:52:40.679Z,100699.88
2023-05-17T06:55:09.255Z,100694.69
2023-05-17T06:57:38.046Z,100691.19
2023-05-17T07:00:11.112Z,100691.06
2023-05-17T07:02:39.210Z,100687.22
2023-05-17T07:05:08.086Z,100702.44
2023-05-17T07:07:36.184Z,100696.06
2023-05-17T07:10:03.910Z,100692.06
2023-05-17T07:12:31.706Z,100687.75
2023-05-17T07:14:59.343Z,100690.78
2023-05-17T07:17:28.545Z,100696.59
2023-05-17T07:19:56.428Z,100702.28
2023-05-17T07:22:24.337Z,100710.13
2023-05-17T07:24:52.071Z,100710.81
2023-05-17T07:27:19.901Z,100711.00
2023-05-17T07:29:47.606Z,100715.75
2023-05-17T07:32:16.266Z,100715.75
2023-05-17T07:34:45.776Z,100715.22
2023-05-17T07:37:13.844Z,100705.66
2023-05-17T07:39:41.548Z,100704.81
2023-05-17T07:42:09.360Z,100704.44
2023-05-17T07:44:37.238Z,100710.22
2023-05-17T07:47:05.487Z,100706.94
2023-05-17T07:49:33.236Z,100709.00
2023-05-17T07:52:03.946Z,100708.53
2023-05-17T07:54:31.757Z,100712.28
2023-05-17T07:57:00.042Z,100708.28
2023-05-17T07:59:27.903Z,100699.06
2023-05-17T08:01:55.963Z,100701.88
2023-05-17T08:04:24.525Z,100705.34
2023-05-17T08:06:52.313Z,100702.47
2023-05-17T08:09:21.946Z,100718.81
2023-05-17T08:11:49.700Z,100712.81
2023-05-17T08:14:18.047Z,100716.66
2023-05-17T08:16:47.247Z,100707.66
2023-05-17T08:19:16.722Z,100714.00
2023-05-17T08:21:46.242Z,100719.13
2023-05-17T08:24:14.461Z,100719.75
2023-05-17T08:26:43.524Z,100719.19
2023-05-17T08:29:11.380Z,100712.13
2023-05-17T08:31:39.043Z,100713.19
2023-05-17T08:34:07.575Z,100712.19
2023-05-17T08:36:35.539Z,100716.25
2023-05-17T08:39:04.408Z,100704.56
2023-05-17T08:41:32.735Z,100709.75
2023-05-17T08:44:04.581Z,100710.50
2023-05-17T08:46:33.701Z,100709.56
2023-05-17T08:49:02.213Z,100702.78
2023-05-17T08:51:30.144Z,100718.97
2023-05-17T08:53:58.490Z,100710.75
2023-05-17T08:56:28.237Z,100714.84
2023-05-17T08:58:58.304Z,100718.25
2023-05-17T09:01:29.915Z,100711.94
2023-05-17T09:04:01.519Z,100704.91
2023-05-17T09:06:31.025Z,100708.53
2023-05-17T09:09:01.752Z,100699.91
2023-05-17T09:11:32.760Z,100712.16
2023-05-17T09:14:01.657Z,100713.06
2023-05-17T09:16:31.614Z,100709.16
2023-05-17T09:19:00.251Z,100708.75
2023-05-17T09:21:28.968Z,100711.75
2023-05-17T09:24:06.400Z,100704.03
2023-05-17T09:26:40.166Z,100708.34
2023-05-17T09:29:12.863Z,100714.00
2023-05-17T09:31:43.417Z,100709.06
2023-05-17T09:34:12.237Z,100689.41
2023-05-17T09:36:44.172Z,100709.03
2023-05-17T09:39:13.844Z,100711.81
2023-05-17T09:41:43.461Z,100716.91
2023-05-17T09:44:13.099Z,100713.31
2023-05-17T09:46:45.733Z,100707.56
2023-05-17T09:49:14.467Z,100715.31
2023-05-17T09:51:43.849Z,100682.34
2023-05-17T09:54:12.266Z,100636.78
2023-05-17T09:56:40.378Z,100720.63
2023-05-17T09:59:13.425Z,100716.22
2023-05-17T10:01:44.966Z,100718.31
2023-05-17T10:04:14.235Z,100719.38
2023-05-17T10:06:50.744Z,100725.63
2023-05-17T10:09:22.901Z,100718.84
2023-05-17T10:11:53.288Z,100723.38
2023-05-17T10:14:27.785Z,100723.13
2023-05-17T10:16:57.869Z,100721.91
2023-05-17T10:19:27.255Z,100720.69
2023-05-17T10:21:58.692Z,100715.94
2023-05-17T10:24:32.407Z,100718.09
2023-05-17T10:27:01.010Z,100718.66
2023-05-17T10:29:31.402Z,100720.16
2023-05-17T10:32:04.684Z,100714.31
2023-05-17T10:34:34.947Z,100717.34
2023-05-17T10:37:04.107Z,100718.28
2023-05-17T10:39:34.978Z,100708.53
2023-05-17T10:42:14.269Z,100717.00
2023-05-17T10:44:44.196Z,100712.41
2023-05-17T10:47:16.368Z,100713.72
2023-05-17T10:49:48.120Z,100709.59
2023-05-17T10:52:18.047Z,100711.75
2023-05-17T10:54:48.777Z,100711.16
2023-05-17T10:57:36.090Z,100697.13
2023-05-17T11:00:21.761Z,100708.03
2023-05-17T11:02:51.538Z,100708.16
2023-05-17T11:05:27.789Z,100704.91
2023-05-17T11:08:14.189Z,100699.66
2023-05-17T11:11:10.013Z,100699.59
2023-05-17T11:13:46.249Z,100704.72
2023-05-17T11:16:18.204Z,100697.28
2023-05-17T11:18:52.379Z,100703.34
2023-05-17T11:21:21.577Z,100702.88
2023-05-17T11:23:55.479Z,100702.78
2023-05-17T11:26:24.521Z,100711.53
2023-05-17T11:29:02.042Z,100701.28
2023-05-17T11:31:34.992Z,100695.38
2023-05-17T11:34:08.540Z,100700.09
2023-05-17T11:36:51.326Z,100686.69
2023-05-17T11:39:21.566Z,100699.06
2023-05-17T11:41:51.097Z,100698.69
2023-05-17T11:44:25.495Z,100690.25
2023-05-17T11:46:54.121Z,100677.50
2023-05-17T11:49:34.073Z,100703.22
2023-05-17T11:52:03.923Z,100697.28
2023-05-17T11:54:32.135Z,100706.13
2023-05-17T11:57:02.435Z,100701.47
2023-05-17T11:59:30.219Z,100697.94
2023-05-17T12:01:57.878Z,100698.03
2023-05-17T12:04:28.462Z,100690.38
2023-05-17T12:06:57.899Z,100676.47
2023-05-17T12:09:26.545Z,100680.03
2023-05-17T12:11:54.403Z,100679.00
2023-05-17T12:14:22.353Z,100676.00
2023-05-17T12:16:53.931Z,100679.03
2023-05-17T12:19:25.259Z,100669.63
2023-05-17T12:21:54.426Z,100667.47
2023-05-17T12:24:22.145Z,100661.75
2023-05-17T12:26:50.161Z,100663.09
2023-05-17T12:29:22.754Z,100647.06
2023-05-17T12:31:54.035Z,100654.69
2023-05-17T12:34:22.919Z,100657.66
2023-05-17T12:36:52.637Z,100659.78
2023-05-17T12:39:24.151Z,100651.28
2023-05-17T12:41:53.281Z,100657.59
2023-05-17T12:44:21.597Z,100657.13
2023-05-17T12:46:54.225Z,100659.72
2023-05-17T12:49:23.043Z,100654.31
2023-05-17T12:51:51.316Z,100654.94
2023-05-17T12:54:29.157Z,100652.25
2023-05-17T12:56:57.405Z,100653.59
2023-05-17T12:59:26.213Z,100651.00
2023-05-17T13:01:56.491Z,100619.09
2023-05-17T13:04:31.957Z,100636.75
2023-05-17T13:07:01.950Z,100644.91
2023-05-17T13:09:32.666Z,100636.16
2023-05-17T13:12:03.347Z,100633.78
2023-05-17T13:14:35.183Z,100622.19
2023-05-17T13:17:03.157Z,100624.72
2023-05-17T13:19:31.070Z,100622.34
2023-05-17T13:21:59.277Z,100624.81
2023-05-17T13:24:28.017Z,100627.84
2023-05-17T13:26:57.078Z,100624.09
2023-05-17T13:29:35.723Z,100616.06
2023-05-17T13:32:07.631Z,100623.50
2023-05-17T13:34:35.480Z,100618.47
2023-05-17T13:37:03.282Z,100618.94
2023-05-17T13:39:31.244Z,100612.28
2023-05-17T13:42:00.425Z,100616.00
2023-05-17T13:44:29.764Z,100615.38
2023-05-17T13:46:57.436Z,100620.81
2023-05-17T13:49:25.477Z,100611.25
2023-05-17T13:51:53.140Z,100605.13
2023-05-17T13:54:23.744Z,100599.28
2023-05-17T13:56:52.539Z,100596.25
2023-05-17T13:59:21.534Z,100590.28
2023-05-17T14:01:49.785Z,100585.56
2023-05-17T14:04:17.490Z,100585.53
2023-05-17T14:06:47.246Z,100591.53
2023-05-17T14:09:16.452Z,100577.06
2023-05-17T14:11:44.299Z,100597.03
2023-05-17T14:14:12.056Z,100592.44
2023-05-17T14:16:41.474Z,100589.41
2023-05-17T14:19:09.275Z,100585.56
2023-05-17T14:21:37.405Z,100592.06
2023-05-17T14:24:05.344Z,100592.13
2023-05-17T14:26:33.116Z,100579.72
2023-05-17T14:29:00.940Z,100575.16
2023-05-17T14:31:29.856Z,100584.09
2023-05-17T14:34:00.199Z,100580.31
2023-05-17T14:36:28.177Z,100586.53
2023-05-17T14:38:55.939Z,100581.03
2023-05-17T14:41:23.648Z,100587.84
2023-05-17T14:43:51.612Z,100577.72
2023-05-17T14:46:19.601Z,100582.81
2023-05-17T14:48:47.606Z,100570.75
2023-05-17T14:51:16.999Z,100573.03
2023-05-17T14:53:44.756Z,100546.00
2023-05-17T14:56:12.479Z,100582.59
2023-05-17T14:58:40.889Z,100580.50
2023-05-17T15:01:09.104Z,100578.84
2023-05-17T15:03:37.214Z,100583.56
2023-05-17T15:06:08.233Z,100584.66
2023-05-17T15:08:39.945Z,100579.16
2023-05-17T15:11:07.871Z,100580.66
2023-05-17T15:13:35.572Z,100575.13
2023-05-17T15:16:04.130Z,100581.00
2023-05-17T15:18:32.147Z,100573.19
2023-05-17T15:20:59.846Z,100570.28
2023-05-17T15:23:27.805Z,100577.47
2023-05-17T15:25:56.868Z,100578.78
2023-05-17T15:28:24.591Z,100575.03
2023-05-17T15:31:01.520Z,100578.25
2023-05-17T15:33:31.053Z,100574.38
2023-05-17T15:35:59.153Z,100568.75
2023-05-17T15:38:27.569Z,100577.19
2023-05-17T15:41:03.770Z,100554.41
2023-05-17T15:43:32.289Z,100577.66
2023-05-17T15:46:00.356Z,100577.69
2023-05-17T15:48:29.199Z,100547.75
2023-05-17T15:50:57.602Z,100547.03
2023-05-17T15:53:25.809Z,100575.44
2023-05-17T15:55:53.774Z,100572.53
2023-05-17T15:58:24.712Z,100572.75
2023-05-17T16:00:52.684Z,100570.25
2023-05-17T16:03:20.355Z,100577.63
2023-05-17T16:05:48.425Z,100573.75
2023-05-17T16:08:16.373Z,100564.13
2023-05-17T16:10:44.525Z,100571.63
2023-05-17T16:13:12.204Z,100564.69
2023-05-17T16:15:41.580Z,100576.78
2023-05-17T16:18:10.581Z,100578.84
2023-05-17T16:20:38.935Z,100577.31
2023-05-17T16:23:07.229Z,100572.72
2023-05-17T16:25:35.335Z,100577.75
2023-05-17T16:28:03.201Z,100574.09
2023-05-17T16:30:31.265Z,100575.97
2023-05-17T16:33:00.375Z,100579.84
2023-05-17T16:35:29.187Z,100589.88
2023-05-17T16:37:56.965Z,100587.78
2023-05-17T16:40:24.932Z,100587.91
2023-05-17T16:42:52.618Z,100599.47
2023-05-17T16:45:20.587Z,100586.44
2023-05-17T16:47:48.308Z,100600.00
2023-05-17T16:50:17.371Z,100607.03
2023-05-17T16:52:45.589Z,100597.44
2023-05-17T16:55:13.350Z,100601.59
2023-05-17T16:57:42.430Z,100605.38
2023-05-17T17:00:11.918Z,100604.41
2023-05-17T17:02:39.830Z,100604.25
2023-05-17T17:05:08.332Z,100592.47
2023-05-17T17:07:37.762Z,100600.09
2023-05-17T17:10:05.951Z,100595.59
2023-05-17T17:12:33.910Z,100596.91
2023-05-17T17:15:02.151Z,100590.38
2023-05-17T17:17:30.594Z,100582.56
2023-05-17T17:19:58.420Z,100586.78
2023-05-17T17:22:26.438Z,100590.28
2023-05-17T17:24:55.583Z,100586.53
2023-05-17T17:27:23.322Z,100583.06
2023-05-17T17:29:51.382Z,100588.63
2023-05-17T17:32:19.222Z,100585.47
2023-05-17T17:34:46.886Z,100590.03
2023-05-17T17:37:14.884Z,100582.28
2023-05-17T17:39:42.773Z,100570.88
2023-05-17T17:42:12.108Z,100588.69
2023-05-17T17:44:39.754Z,100584.22
2023-05-17T17:47:08.452Z,100579.72
2023-05-17T17:49:37.095Z,100586.03
2023-05-17T17:52:05.735Z,100581.31
2023-05-17T17:54:33.407Z,100586.56
2023-05-17T17:57:02.663Z,100577.56
2023-05-17T17:59:31.770Z,100591.59
2023-05-17T18:02:00.502Z,100590.84
2023-05-17T18:04:28.461Z,100591.28
2023-05-17T18:06:56.581Z,100586.16
2023-05-17T18:09:24.666Z,100593.13
2023-05-17T18:11:52.392Z,100593.75
2023-05-17T18:14:21.715Z,100583.47
2023-05-17T18:16:50.777Z,100595.00
2023-05-17T18:19:19.123Z,100594.78
2023-05-17T18:21:46.967Z,100596.00
2023-05-17T18:24:14.774Z,100588.19
2023-05-17T18:26:42.497Z,100596.59
2023-05-17T18:29:10.436Z,100594.72
2023-05-17T18:31:38.221Z,100592.25
2023-05-17T18:34:07.577Z,100594.91
2023-05-17T18:36:35.288Z,100593.22
2023-05-17T18:39:03.286Z,100595.91
2023-05-17T18:41:31.016Z,100597.06
2023-05-17T18:44:02.005Z,100590.00
2023-05-17T18:46:30.448Z,100596.13
2023-05-17T18:48:58.538Z,100593.00
2023-05-17T18:51:28.575Z,100591.13
2023-05-17T18:53:56.443Z,100589.56
2023-05-17T18:56:25.117Z,100593.06
2023-05-17T18:58:53.345Z,100585.44
2023-05-17T19:01:21.318Z,100585.94
2023-05-17T19:03:51.398Z,100578.88
2023-05-17T19:06:19.493Z,100585.56
2023-05-17T19:08:50.541Z,100586.88
2023-05-17T19:11:18.513Z,100599.81
2023-05-17T19:13:46.611Z,100603.25
2023-05-17T19:16:15.522Z,100605.22
2023-05-17T19:18:43.319Z,100608.25
2023-05-17T19:21:11.397Z,100602.78
2023-05-17T19:23:39.325Z,100614.31
2023-05-17T19:26:08.665Z,100609.38
2023-05-17T19:28:36.314Z,100606.78
2023-05-17T19:31:05.143Z,100612.66
2023-05-17T19:33:34.052Z,100615.66
2023-05-17T19:36:02.289Z,100617.59
2023-05-17T19:38:29.930Z,100619.34
2023-05-17T19:40:57.630Z,100616.78
2023-05-17T19:43:27.081Z,100624.88
2023-05-17T19:45:54.897Z,100626.53
2023-05-17T19:48:24.040Z,100639.56
2023-05-17T19:50:53.257Z,100562.72
2023-05-17T19:53:22.864Z,100639.06
2023-05-17T19:55:50.863Z,100644.66
2023-05-17T19:58:18.622Z,100637.97
2023-05-17T20:00:48.195Z,100643.66
2023-05-17T20:03:16.098Z,100641.19
2023-05-17T20:05:44.192Z,100640.38
2023-05-17T20:08:11.842Z,100632.94
2023-05-17T20:10:39.903Z,100641.00
2023-05-17T20:13:07.609Z,100646.44
2023-05-17T20:15:35.518Z,100638.53
2023-05-17T20:18:05.480Z,100635.59
2023-05-17T20:20:33.260Z,100628.97
2023-05-17T20:23:01.243Z,100638.78
2023-05-17T20:25:28.991Z,100641.00
2023-05-17T20:27:56.965Z,100632.16
2023-05-17T20:30:24.658Z,100639.91
2023-05-17T20:32:52.616Z,100655.03
2023-05-17T20:35:21.935Z,100645.22
2023-05-17T20:37:49.609Z,100642.72
2023-05-17T20:40:17.527Z,100649.69
2023-05-17T20:42:46.148Z,100649.78
2023-05-17T20:45:17.672Z,100644.69
2023-05-17T20:47:45.582Z,100653.94
2023-05-17T20:50:14.106Z,100642.81
2023-05-17T20:52:43.223Z,100640.53
2023-05-17T20:55:11.301Z,100650.25
2023-05-17T20:57:39.288Z,100643.66
2023-05-17T21:00:09.569Z,100647.78
2023-05-17T21:02:39.142Z,100646.69
2023-05-17T21:05:09.038Z,100653.72
2023-05-17T21:07:39.415Z,100664.91
2023-05-17T21:10:10.072Z,100659.13
2023-05-17T21:12:37.900Z,100661.63
2023-05-17T21:15:16.610Z,100651.91
2023-05-17T21:17:45.407Z,100662.09
2023-05-17T21:20:14.079Z,100660.03
2023-05-17T21:22:42.012Z,100664.56
2023-05-17T21:25:11.561Z,100660.72
2023-05-17T21:27:39.544Z,100665.94
2023-05-17T21:30:08.510Z,100607.22
2023-05-17T21:32:37.093Z,100669.78
2023-05-17T21:35:05.220Z,100667.13
2023-05-17T21:37:33.655Z,100664.66
2023-05-17T21:40:01.323Z,100657.59
2023-05-17T21:42:30.799Z,100659.34
2023-05-17T21:44:58.740Z,100659.97
2023-05-17T21:47:26.454Z,100653.94
2023-05-17T21:49:54.670Z,100657.59
2023-05-17T21:52:22.381Z,100654.66
2023-05-17T21:54:50.321Z,100660.88
2023-05-17T21:57:20.717Z,100654.53
2023-05-17T21:59:50.180Z,100655.72
2023-05-17T22:02:18.244Z,100653.84
2023-05-17T22:04:46.262Z,100663.31
2023-05-17T22:07:14.072Z,100656.72
2023-05-17T22:09:42.029Z,100659.81
2023-05-17T22:12:12.100Z,100655.34
2023-05-17T22:14:43.478Z,100651.31
2023-05-17T22:17:12.570Z,100657.53
2023-05-17T22:19:41.614Z,100650.88
2023-05-17T22:22:10.308Z,100656.03
2023-05-17T22:24:38.512Z,100661.47
2023-05-17T22:27:06.718Z,100660.66
2023-05-17T22:29:34.697Z,100650.94
2023-05-17T22:32:02.494Z,100659.00
2023-05-17T22:34:31.977Z,100663.56
2023-05-17T22:36:59.834Z,100665.16
2023-05-17T22:39:27.815Z,100662.81
2023-05-17T22:41:55.678Z,100662.06
2023-05-17T22:44:23.680Z,100651.81
2023-05-17T22:46:51.411Z,100656.22
2023-05-17T22:49:20.475Z,100659.16
2023-05-17T22:51:49.518Z,100660.06
2023-05-17T22:54:17.346Z,100656.94
2023-05-17T22:56:45.040Z,100652.53
2023-05-17T22:59:13.000Z,100656.09
2023-05-17T23:01:40.714Z,100661.34
2023-05-17T23:04:08.855Z,100657.97
2023-05-17T23:06:36.574Z,100662.72
2023-05-17T23:09:06.267Z,100669.53
2023-05-17T23:11:35.311Z,100672.19
2023-05-17T23:14:03.229Z,100665.84
2023-05-17T23:16:30.993Z,100669.16
2023-05-17T23:18:59.996Z,100674.47
2023-05-17T23:21:28.098Z,100672.34
2023-05-17T23:23:56.290Z,100673.56
2023-05-17T23:26:25.799Z,100664.13
2023-05-17T23:28:53.658Z,100664.38
2023-05-17T23:31:22.432Z,100670.91
2023-05-17T23:33:50.171Z,100675.94
2023-05-17T23:36:17.994Z,100665.66
2023-05-17T23:38:45.699Z,100667.34
2023-05-17T23:41:18.270Z,100664.38
2023-05-17T23:43:47.634Z,100662.38
2023-05-17T23:46:20.107Z,100659.44
2023-05-17T23:48:50.491Z,100662.00
2023-05-17T23:51:20.018Z,100660.81
2023-05-17T23:53:49.130Z,100584.38
2023-05-17T23:56:17.955Z,100662.69
2023-05-17T23:58:47.426Z,100663.91
